createdAt,value
2023-05-09T00:00:08.720Z,58.6
2023-05-09T00:01:23.181Z,58.1
2023-05-09T00:02:37.645Z,54.3
2023-05-09T00:03:52.134Z,55.5
2023-05-09T00:05:06.582Z,57
2023-05-09T00:06:21.055Z,57
2023-05-09T00:07:35.521Z,54.7
2023-05-09T00:08:49.999Z,59.1
2023-05-09T00:10:04.468Z,53
2023-05-09T00:11:18.924Z,54.4
2023-05-09T00:13:47.867Z,57.5
2023-05-09T00:15:02.335Z,54.4
2023-05-09T00:16:15.922Z,56.2
2023-05-09T00:17:30.405Z,55.9
2023-05-09T00:18:44.862Z,53
2023-05-09T00:19:59.327Z,60.1
2023-05-09T00:21:13.797Z,57.3
2023-05-09T00:22:28.270Z,57.5
2023-05-09T00:23:42.727Z,55.5
2023-05-09T00:24:57.213Z,56.3
2023-05-09T00:26:11.668Z,55.7
2023-05-09T00:27:26.142Z,53.8
2023-05-09T00:28:40.621Z,55.1
2023-05-09T00:29:55.075Z,59.4
2023-05-09T00:31:09.552Z,59.1
2023-05-09T00:33:37.597Z,57
2023-05-09T00:34:52.073Z,58.6
2023-05-09T00:36:06.546Z,55.9
2023-05-09T00:37:21.009Z,56.3
2023-05-09T00:38:35.480Z,56.3
2023-05-09T00:39:49.948Z,52.6
2023-05-09T00:41:04.414Z,54.7
2023-05-09T00:42:18.881Z,57
2023-05-09T00:44:47.810Z,56.5
2023-05-09T00:46:02.290Z,57.3
2023-05-09T00:48:31.215Z,55.9
2023-05-09T00:49:45.681Z,54.4
2023-05-09T00:50:59.292Z,55.5
2023-05-09T00:53:27.374Z,55.5
2023-05-09T00:54:41.825Z,52.5
2023-05-09T00:55:56.285Z,55.4
2023-05-09T00:58:25.242Z,55.4
2023-05-09T00:59:39.707Z,54.7
2023-05-09T01:00:54.165Z,59.6
2023-05-09T01:02:08.638Z,53
2023-05-09T01:03:23.103Z,56.3
2023-05-09T01:04:37.572Z,53.4
2023-05-09T01:05:51.180Z,57.5
2023-05-09T01:07:04.765Z,60.2
2023-05-09T01:08:19.229Z,57.2
2023-05-09T01:09:33.711Z,59.7
2023-05-09T01:10:48.181Z,57.5
2023-05-09T01:12:02.643Z,54.9
2023-05-09T01:13:17.107Z,55.7
2023-05-09T01:14:31.570Z,57
2023-05-09T01:15:46.045Z,54.9
2023-05-09T01:17:00.507Z,58
2023-05-09T01:18:14.994Z,58.6
2023-05-09T01:19:29.445Z,59.7
2023-05-09T01:20:43.918Z,57.5
2023-05-09T01:21:57.530Z,55.5
2023-05-09T01:23:12.001Z,58.3
2023-05-09T01:24:26.466Z,57.5
2023-05-09T01:25:40.057Z,58.8
2023-05-09T01:26:54.529Z,60.2
2023-05-09T01:28:08.992Z,60.9
2023-05-09T01:29:23.457Z,60.9
2023-05-09T01:30:37.948Z,60.9
2023-05-09T01:31:52.392Z,56.3
2023-05-09T01:33:06.865Z,55.9
2023-05-09T01:34:21.340Z,60.4
2023-05-09T01:35:34.940Z,60.5
2023-05-09T01:36:48.542Z,61.2
2023-05-09T01:38:03.004Z,54.1
2023-05-09T01:39:17.465Z,55.1
2023-05-09T01:40:31.934Z,57.6
2023-05-09T01:41:46.413Z,61.8
2023-05-09T01:43:00.879Z,58.3
2023-05-09T01:44:15.338Z,58.3
2023-05-09T01:45:29.822Z,58.4
2023-05-09T01:46:44.278Z,55.4
2023-05-09T01:47:58.763Z,59.4
2023-05-09T01:49:13.209Z,61
2023-05-09T01:50:27.692Z,59.9
2023-05-09T01:51:42.156Z,58.8
2023-05-09T01:52:56.613Z,62
2023-05-09T01:54:10.205Z,61
2023-05-09T01:55:24.672Z,62.5
2023-05-09T01:56:39.154Z,61.2
2023-05-09T01:57:53.617Z,58.1
2023-05-09T01:59:08.087Z,62.3
2023-05-09T02:00:22.557Z,59.6
2023-05-09T02:02:51.491Z,58.9
2023-05-09T02:04:05.952Z,63.3
2023-05-09T02:05:20.420Z,62.1
2023-05-09T02:06:34.887Z,60.2
2023-05-09T02:07:49.362Z,58.8
2023-05-09T02:09:03.826Z,60.7
2023-05-09T02:10:17.409Z,61
2023-05-09T02:11:31.891Z,58.1
2023-05-09T02:12:46.357Z,60.9
2023-05-09T02:14:00.813Z,60.2
2023-05-09T02:15:15.292Z,59.1
2023-05-09T02:16:29.766Z,63.9
2023-05-09T02:17:44.217Z,63
2023-05-09T02:18:58.690Z,59.4
2023-05-09T02:20:13.171Z,61
2023-05-09T02:21:27.638Z,57.5
2023-05-09T02:22:42.106Z,57.5
2023-05-09T02:23:56.569Z,59.6
2023-05-09T02:25:11.048Z,57
2023-05-09T02:26:24.623Z,62.5
2023-05-09T02:27:39.090Z,59.2
2023-05-09T02:28:53.568Z,61.8
2023-05-09T02:30:08.038Z,62.5
2023-05-09T02:32:36.974Z,61.5
2023-05-09T02:35:05.900Z,60.5
2023-05-09T02:36:20.372Z,61
2023-05-09T02:37:34.844Z,59.4
2023-05-09T02:38:49.315Z,60.2
2023-05-09T02:40:03.783Z,61.7
2023-05-09T02:41:18.239Z,63.4
2023-05-09T02:42:32.721Z,63.6
2023-05-09T02:43:46.312Z,62.5
2023-05-09T02:45:00.774Z,61
2023-05-09T02:46:15.240Z,60.2
2023-05-09T02:47:29.710Z,61.5
2023-05-09T02:48:44.171Z,60.7
2023-05-09T02:49:58.649Z,61.8
2023-05-09T02:52:27.581Z,63.4
2023-05-09T02:53:41.190Z,63.4
2023-05-09T02:54:54.776Z,60.9
2023-05-09T02:56:09.254Z,61.8
2023-05-09T02:57:23.723Z,62.6
2023-05-09T02:58:38.129Z,63
2023-05-09T02:59:51.668Z,61
2023-05-09T03:01:06.089Z,63.6
2023-05-09T03:02:20.485Z,64.6
2023-05-09T03:03:34.927Z,63.6
2023-05-09T03:04:49.326Z,62.3
2023-05-09T03:06:03.739Z,62.1
2023-05-09T03:07:18.152Z,64.9
2023-05-09T03:08:32.584Z,62.1
2023-05-09T03:09:46.143Z,65.2
2023-05-09T03:10:59.677Z,62.6
2023-05-09T03:12:14.094Z,62.5
2023-05-09T03:13:28.502Z,63.8
2023-05-09T03:14:42.912Z,63.4
2023-05-09T03:15:57.334Z,64.9
2023-05-09T03:17:11.746Z,61.7
2023-05-09T03:18:26.144Z,64.6
2023-05-09T03:19:40.567Z,65.2
2023-05-09T03:22:09.390Z,63.9
2023-05-09T03:23:23.820Z,66.2
2023-05-09T03:24:38.217Z,67.1
2023-05-09T03:27:07.057Z,62.6
2023-05-09T03:28:21.477Z,63.9
2023-05-09T03:29:35.020Z,63.1
2023-05-09T03:30:49.433Z,62.6
2023-05-09T03:32:03.859Z,65.7
2023-05-09T03:33:18.273Z,62.6
2023-05-09T03:34:31.795Z,66.5
2023-05-09T03:35:46.223Z,65.7
2023-05-09T03:37:00.631Z,66.3
2023-05-09T03:38:15.037Z,63.9
2023-05-09T03:39:29.452Z,62.6
2023-05-09T03:41:58.282Z,65.2
2023-05-09T03:43:12.701Z,69.1
2023-05-09T03:44:27.121Z,65.4
2023-05-09T03:45:41.537Z,64.9
2023-05-09T03:46:55.945Z,64.6
2023-05-09T03:48:10.369Z,63.4
2023-05-09T03:49:24.778Z,68.1
2023-05-09T03:50:38.320Z,66.5
2023-05-09T03:51:52.730Z,65
2023-05-09T03:53:07.130Z,67.5
2023-05-09T03:54:21.548Z,64.4
2023-05-09T03:56:49.513Z,65.7
2023-05-09T03:58:03.946Z,64.2
2023-05-09T03:59:17.480Z,67.3
2023-05-09T04:00:31.889Z,63
2023-05-09T04:01:46.295Z,65.4
2023-05-09T04:03:00.705Z,63.9
2023-05-09T04:04:15.136Z,64.1
2023-05-09T04:05:29.551Z,65.2
2023-05-09T04:06:43.956Z,65.5
2023-05-09T04:09:11.919Z,64.7
2023-05-09T04:10:25.461Z,64.4
2023-05-09T04:11:39.876Z,66
2023-05-09T04:12:54.287Z,67.5
2023-05-09T04:14:08.709Z,65.5
2023-05-09T04:15:23.126Z,65.4
2023-05-09T04:16:37.541Z,67.6
2023-05-09T04:17:51.939Z,66
2023-05-09T04:19:06.359Z,65.5
2023-05-09T04:20:20.785Z,65.2
2023-05-09T04:24:04.017Z,64.9
2023-05-09T04:25:17.585Z,66.3
2023-05-09T04:26:31.106Z,67.5
2023-05-09T04:27:45.525Z,65.9
2023-05-09T04:30:14.350Z,66.3
2023-05-09T04:31:28.761Z,66
2023-05-09T04:32:43.184Z,67.1
2023-05-09T04:33:57.588Z,67.5
2023-05-09T04:35:12.019Z,67.6
2023-05-09T04:36:26.437Z,65.5
2023-05-09T04:37:40.848Z,65.4
2023-05-09T04:38:55.246Z,67.5
2023-05-09T04:40:09.659Z,66.5
2023-05-09T04:41:24.080Z,67.6
2023-05-09T04:42:38.493Z,67.1
2023-05-09T04:43:52.048Z,67
2023-05-09T04:45:06.436Z,67.1
2023-05-09T04:46:20.856Z,66.3
2023-05-09T04:47:35.293Z,66.5
2023-05-09T04:48:49.687Z,63.9
2023-05-09T04:50:04.096Z,62.6
2023-05-09T04:51:18.534Z,63.3
2023-05-09T04:52:32.070Z,63.9
2023-05-09T04:53:45.612Z,62.3
2023-05-09T04:55:00.017Z,63.4
2023-05-09T04:56:14.439Z,63.4
2023-05-09T04:57:28.854Z,67.1
2023-05-09T04:59:57.682Z,63.3
2023-05-09T05:01:12.097Z,65.5
2023-05-09T05:02:26.506Z,62.5
2023-05-09T05:03:40.915Z,61.8
2023-05-09T05:04:55.331Z,63.8
2023-05-09T05:06:09.743Z,63
2023-05-09T05:07:24.174Z,62.1
2023-05-09T05:08:38.581Z,63.1
2023-05-09T05:09:52.989Z,61.8
2023-05-09T05:11:07.410Z,61.7
2023-05-09T05:12:21.817Z,62.1
2023-05-09T05:13:35.359Z,61.8
2023-05-09T05:14:49.778Z,61
2023-05-09T05:16:04.197Z,60.7
2023-05-09T05:17:18.588Z,60.5
2023-05-09T05:18:32.155Z,61.2
2023-05-09T05:21:00.977Z,64.9
2023-05-09T05:22:14.509Z,65.4
2023-05-09T05:23:28.941Z,66
2023-05-09T05:24:43.339Z,64.1
2023-05-09T05:25:57.750Z,67.5
2023-05-09T05:27:12.169Z,64.7
2023-05-09T05:29:40.998Z,64.9
2023-05-09T05:30:55.424Z,62
2023-05-09T05:32:09.839Z,64.1
2023-05-09T05:33:24.236Z,64.7
2023-05-09T05:34:38.657Z,72.8
2023-05-09T05:35:53.079Z,61.5
2023-05-09T05:37:06.634Z,59.6
2023-05-09T05:38:20.171Z,62.6
2023-05-09T05:39:34.566Z,66.2
2023-05-09T05:40:48.991Z,60.9
2023-05-09T05:42:03.406Z,58
2023-05-09T05:43:17.813Z,58.8
2023-05-09T05:44:32.235Z,75.4
2023-05-09T05:45:46.651Z,68.6
2023-05-09T05:47:01.063Z,75
2023-05-09T05:48:15.463Z,72.5
2023-05-09T05:49:29.020Z,67
2023-05-09T05:50:43.443Z,69.2
2023-05-09T05:51:56.966Z,67.8
2023-05-09T05:53:11.394Z,65.4
2023-05-09T05:54:25.794Z,60.9
2023-05-09T05:55:40.224Z,70
2023-05-09T05:56:54.639Z,65.9
2023-05-09T05:59:23.462Z,65.4
2023-05-09T06:00:37.871Z,67.8
2023-05-09T06:01:52.293Z,69.2
2023-05-09T06:04:21.114Z,63.4
2023-05-09T06:05:35.527Z,82.9
2023-05-09T06:06:49.946Z,60.4
2023-05-09T06:08:04.357Z,64.2
2023-05-09T06:09:17.904Z,65.7
2023-05-09T06:10:31.446Z,75
2023-05-09T06:13:00.275Z,56.3
2023-05-09T06:14:14.682Z,55.2
2023-05-09T06:15:29.102Z,53.9
2023-05-09T06:16:43.520Z,56.3
2023-05-09T06:17:57.932Z,57.2
2023-05-09T06:19:12.334Z,61.8
2023-05-09T06:20:26.757Z,56.3
2023-05-09T06:21:41.156Z,59.7
2023-05-09T06:22:55.571Z,55.4
2023-05-09T06:24:09.999Z,57.8
2023-05-09T06:25:24.414Z,73.1
2023-05-09T06:27:53.245Z,66.3
2023-05-09T06:29:06.777Z,63.4
2023-05-09T06:30:21.200Z,67.1
2023-05-09T06:31:34.746Z,79.1
2023-05-09T06:32:49.145Z,71.8
2023-05-09T06:34:03.558Z,72.6
2023-05-09T06:35:17.963Z,75
2023-05-09T06:36:32.384Z,77.3
2023-05-09T06:37:46.805Z,65.9
2023-05-09T06:39:01.217Z,76.6
2023-05-09T06:40:15.633Z,70.7
2023-05-09T06:42:43.606Z,55.2
2023-05-09T06:43:58.006Z,56.3
2023-05-09T06:45:12.550Z,57.2
2023-05-09T06:46:26.961Z,58.8
2023-05-09T06:47:41.373Z,56
2023-05-09T06:48:55.794Z,56.8
2023-05-09T06:50:10.188Z,54.7
2023-05-09T06:51:24.632Z,54.4
2023-05-09T06:52:39.031Z,52.3
2023-05-09T06:53:53.442Z,53
2023-05-09T06:55:07.868Z,51.2
2023-05-09T06:57:35.846Z,61.2
2023-05-09T06:58:50.231Z,76
2023-05-09T07:00:03.767Z,62.8
2023-05-09T07:01:18.174Z,76.2
2023-05-09T07:02:32.598Z,73.9
2023-05-09T07:03:47.003Z,63.4
2023-05-09T07:05:01.431Z,80.7
2023-05-09T07:07:30.266Z,71.2
2023-05-09T07:08:43.783Z,63.8
2023-05-09T07:09:58.196Z,64.4
2023-05-09T07:11:12.618Z,64.9
2023-05-09T07:12:27.019Z,66.2
2023-05-09T07:13:41.455Z,63.1
2023-05-09T07:14:55.863Z,66.5
2023-05-09T07:16:10.269Z,65.2
2023-05-09T07:17:24.707Z,74.2
2023-05-09T07:18:39.097Z,67.5
2023-05-09T07:19:53.509Z,62.1
2023-05-09T07:23:36.758Z,58.4
2023-05-09T07:27:19.120Z,53.4
2023-05-09T07:28:33.539Z,51.8
2023-05-09T07:29:47.934Z,56.2
2023-05-09T07:31:02.358Z,53.6
2023-05-09T07:32:16.756Z,53.3
2023-05-09T07:33:31.179Z,52.5
2023-05-09T07:34:45.586Z,57.2
2023-05-09T07:36:00.006Z,53.9
2023-05-09T07:37:14.436Z,54.9
2023-05-09T07:38:28.824Z,56.3
2023-05-09T07:39:43.254Z,71
2023-05-09T07:40:56.789Z,65.2
2023-05-09T07:42:11.208Z,64.1
2023-05-09T07:43:25.608Z,65.5
2023-05-09T07:44:40.014Z,67
2023-05-09T07:45:54.431Z,62.6
2023-05-09T07:47:08.853Z,52.6
2023-05-09T07:48:23.274Z,57.8
2023-05-09T07:49:37.690Z,53.4
2023-05-09T07:50:52.105Z,55.9
2023-05-09T07:52:06.505Z,52.8
2023-05-09T07:53:20.945Z,75
2023-05-09T07:54:35.339Z,62.1
2023-05-09T07:55:48.880Z,61.3
2023-05-09T07:57:03.294Z,63.1
2023-05-09T07:58:17.724Z,77.1
2023-05-09T07:59:31.263Z,63.4
2023-05-09T08:02:00.085Z,64.1
2023-05-09T08:03:14.484Z,66.5
2023-05-09T08:04:28.898Z,64.1
2023-05-09T08:05:43.309Z,60.5
2023-05-09T08:08:12.144Z,75.5
2023-05-09T08:09:26.559Z,62.8
2023-05-09T08:10:40.117Z,65.7
2023-05-09T08:11:54.522Z,67
2023-05-09T08:13:08.934Z,62.3
2023-05-09T08:14:22.488Z,59.1
2023-05-09T08:16:51.304Z,50.5
2023-05-09T08:18:05.730Z,54.3
2023-05-09T08:19:20.130Z,61.3
2023-05-09T08:20:34.542Z,64.7
2023-05-09T08:21:48.952Z,61.7
2023-05-09T08:23:03.368Z,62.1
2023-05-09T08:24:17.812Z,51.2
2023-05-09T08:28:01.048Z,65.4
2023-05-09T08:29:15.449Z,55.9
2023-05-09T08:30:28.977Z,52.3
2023-05-09T08:31:43.408Z,50.5
2023-05-09T08:32:57.816Z,50.2
2023-05-09T08:34:12.213Z,52.3
2023-05-09T08:35:26.623Z,54.7
2023-05-09T08:36:41.056Z,59.9
2023-05-09T08:37:55.478Z,53.8
2023-05-09T08:39:09.875Z,54.7
2023-05-09T08:41:38.720Z,54.6
2023-05-09T08:42:53.111Z,53.4
2023-05-09T08:44:07.526Z,52.6
2023-05-09T08:45:21.930Z,53.3
2023-05-09T08:46:36.346Z,52
2023-05-09T08:47:50.764Z,49.6
2023-05-09T08:49:04.296Z,55.2
2023-05-09T08:50:18.727Z,51.7
2023-05-09T08:51:33.140Z,55.5
2023-05-09T08:52:47.547Z,52
2023-05-09T08:54:01.096Z,53.6
2023-05-09T08:56:29.919Z,54.3
2023-05-09T08:57:44.344Z,65
2023-05-09T08:58:58.753Z,65
2023-05-09T09:00:13.176Z,61.2
2023-05-09T09:01:27.575Z,73.7
2023-05-09T09:02:42.005Z,62.1
2023-05-09T09:03:56.405Z,67.5
2023-05-09T09:05:09.961Z,61.3
2023-05-09T09:06:24.346Z,64.1
2023-05-09T09:07:38.786Z,61.3
2023-05-09T09:08:53.178Z,60.1
2023-05-09T09:10:07.586Z,51.7
2023-05-09T09:12:36.428Z,53.3
2023-05-09T09:16:19.665Z,56.7
2023-05-09T09:17:34.094Z,60.7
2023-05-09T09:18:48.490Z,62
2023-05-09T09:20:02.067Z,63.4
2023-05-09T09:21:16.458Z,68.9
2023-05-09T09:22:30.883Z,63.9
2023-05-09T09:23:44.419Z,60.7
2023-05-09T09:24:58.824Z,63.3
2023-05-09T09:26:13.253Z,64.7
2023-05-09T09:27:27.652Z,63.8
2023-05-09T09:31:10.883Z,63.3
2023-05-09T09:32:25.304Z,62.1
2023-05-09T09:33:39.731Z,56.5
2023-05-09T09:34:54.133Z,54.9
2023-05-09T09:36:08.548Z,54.7
2023-05-09T09:37:22.968Z,53.3
2023-05-09T09:38:37.389Z,53.6
2023-05-09T09:39:51.785Z,53.9
2023-05-09T09:41:06.212Z,53.3
2023-05-09T09:42:19.760Z,52.8
2023-05-09T09:43:34.150Z,56
2023-05-09T09:44:48.576Z,55.7
2023-05-09T09:46:02.982Z,53.8
2023-05-09T09:47:17.396Z,55.2
2023-05-09T09:48:31.816Z,57
2023-05-09T09:49:46.215Z,62.8
2023-05-09T09:51:00.659Z,65.9
2023-05-09T09:52:15.042Z,65.2
2023-05-09T09:53:29.460Z,63.6
2023-05-09T09:55:58.280Z,60.2
2023-05-09T09:57:12.691Z,69.4
2023-05-09T09:58:27.131Z,60.9
2023-05-09T09:59:41.521Z,72.3
2023-05-09T10:00:55.929Z,67.3
2023-05-09T10:02:10.365Z,56.7
2023-05-09T10:03:23.900Z,56.7
2023-05-09T10:04:38.315Z,52.8
2023-05-09T10:05:52.730Z,56.3
2023-05-09T10:07:07.144Z,60.7
2023-05-09T10:08:20.704Z,52.2
2023-05-09T10:10:49.521Z,56.8
2023-05-09T10:12:03.918Z,53
2023-05-09T10:14:32.747Z,52.8
2023-05-09T10:15:47.196Z,52.3
2023-05-09T10:17:01.574Z,61.8
2023-05-09T10:18:15.152Z,60.5
2023-05-09T10:19:28.674Z,61
2023-05-09T10:20:43.078Z,60.5
2023-05-09T10:21:57.522Z,62.5
2023-05-09T10:23:11.920Z,68.1
2023-05-09T10:25:40.733Z,60.4
2023-05-09T10:26:55.167Z,72.5
2023-05-09T10:28:09.559Z,60.2
2023-05-09T10:29:24.011Z,60.5
2023-05-09T10:30:38.396Z,61.7
2023-05-09T10:31:52.809Z,53.1
2023-05-09T10:33:07.215Z,57.2
2023-05-09T10:34:21.650Z,51
2023-05-09T10:35:36.040Z,55.2
2023-05-09T10:36:50.455Z,52.8
2023-05-09T10:38:04.001Z,55.2
2023-05-09T10:39:18.412Z,50.1
2023-05-09T10:40:32.841Z,52.3
2023-05-09T10:41:47.236Z,51.7
2023-05-09T10:43:01.678Z,61
2023-05-09T10:44:16.057Z,62.3
2023-05-09T10:45:30.498Z,61.5
2023-05-09T10:46:44.880Z,62.1
2023-05-09T10:47:59.303Z,65.2
2023-05-09T10:49:12.862Z,75.5
2023-05-09T10:50:27.272Z,62
2023-05-09T10:51:41.702Z,62.5
2023-05-09T10:52:56.113Z,62.8
2023-05-09T10:54:10.517Z,62.6
2023-05-09T10:55:24.926Z,62.5
2023-05-09T10:56:39.361Z,62.6
2023-05-09T10:57:53.745Z,55.4
2023-05-09T10:59:08.171Z,49.1
2023-05-09T11:00:22.608Z,58.6
2023-05-09T11:01:37.000Z,60.5
2023-05-09T11:02:50.566Z,53.3
2023-05-09T11:05:18.517Z,51.4
2023-05-09T11:07:47.341Z,53.6
2023-05-09T11:09:01.742Z,55.2
2023-05-09T11:10:16.157Z,53
2023-05-09T11:11:30.561Z,51.2
2023-05-09T11:12:44.984Z,55.2
2023-05-09T11:13:59.389Z,52
2023-05-09T11:15:13.817Z,52.5
2023-05-09T11:16:28.231Z,56.8
2023-05-09T11:17:42.630Z,67.5
2023-05-09T11:18:57.058Z,70.5
2023-05-09T11:20:11.457Z,60.5
2023-05-09T11:21:25.039Z,61.5
2023-05-09T11:22:39.448Z,61.7
2023-05-09T11:26:21.820Z,76.2
2023-05-09T11:27:36.238Z,61.8
2023-05-09T11:28:50.662Z,60.7
2023-05-09T11:30:05.090Z,61
2023-05-09T11:31:19.459Z,59.1
2023-05-09T11:32:33.901Z,53.3
2023-05-09T11:33:48.291Z,52.5
2023-05-09T11:35:02.718Z,57.3
2023-05-09T11:36:17.115Z,53.4
2023-05-09T11:37:31.544Z,55.2
2023-05-09T11:39:59.512Z,53.3
2023-05-09T11:41:13.058Z,52.2
2023-05-09T11:43:41.024Z,63.9
2023-05-09T11:44:55.419Z,61.5
2023-05-09T11:46:09.846Z,63
2023-05-09T11:47:24.253Z,62.1
2023-05-09T11:51:07.489Z,62
2023-05-09T11:52:21.903Z,56.3
2023-05-09T11:53:36.313Z,57.5
2023-05-09T11:54:50.724Z,58.1
2023-05-09T11:56:05.147Z,66.3
2023-05-09T11:57:19.550Z,61.7
2023-05-09T11:58:33.991Z,61.2
2023-05-09T11:59:47.498Z,61.5
2023-05-09T12:01:01.916Z,55.9
2023-05-09T12:02:16.331Z,58
2023-05-09T12:03:30.760Z,62.5
2023-05-09T12:04:45.156Z,75
2023-05-09T12:05:59.568Z,66.3
2023-05-09T12:07:14.006Z,63.6
2023-05-09T12:08:28.410Z,61.8
2023-05-09T12:09:42.848Z,60.5
2023-05-09T12:10:57.262Z,63.1
2023-05-09T12:13:26.064Z,62.3
2023-05-09T12:14:40.469Z,61.8
2023-05-09T12:15:53.998Z,67.8
2023-05-09T12:17:07.579Z,72
2023-05-09T12:18:21.978Z,64.2
2023-05-09T12:20:50.793Z,62.6
2023-05-09T12:22:04.341Z,59.1
2023-05-09T12:23:18.741Z,64.6
2023-05-09T12:24:33.191Z,63.3
2023-05-09T12:25:47.600Z,63.1
2023-05-09T12:27:01.994Z,64.7
2023-05-09T12:28:16.429Z,61.3
2023-05-09T12:29:30.811Z,63.1
2023-05-09T12:30:45.240Z,64.1
2023-05-09T12:33:14.062Z,60.2
2023-05-09T12:34:28.495Z,51.8
2023-05-09T12:35:42.914Z,53.6
2023-05-09T12:36:57.311Z,53.9
2023-05-09T12:38:11.705Z,52.5
2023-05-09T12:39:25.275Z,52.2
2023-05-09T12:41:54.102Z,56.3
2023-05-09T12:43:07.621Z,60.9
2023-05-09T12:44:22.041Z,61.8
2023-05-09T12:45:36.456Z,61.7
2023-05-09T12:48:05.310Z,60.7
2023-05-09T12:49:19.698Z,68.1
2023-05-09T12:50:34.122Z,62.3
2023-05-09T12:51:48.548Z,61.8
2023-05-09T12:53:02.979Z,65.4
2023-05-09T12:54:17.349Z,61.7
2023-05-09T12:55:31.762Z,58.4
2023-05-09T12:56:46.178Z,62.1
2023-05-09T12:59:15.043Z,54.3
2023-05-09T13:00:29.446Z,56.3
2023-05-09T13:02:58.259Z,59.9
2023-05-09T13:04:12.666Z,59.6
2023-05-09T13:05:27.076Z,53.8
2023-05-09T13:06:41.516Z,51.2
2023-05-09T13:09:10.317Z,53.4
2023-05-09T13:10:24.733Z,53
2023-05-09T13:11:39.140Z,53.8
2023-05-09T13:12:53.569Z,53.1
2023-05-09T13:14:07.126Z,53.6
2023-05-09T13:15:21.504Z,54.3
2023-05-09T13:16:35.920Z,53.9
2023-05-09T13:17:50.336Z,64.4
2023-05-09T13:19:04.739Z,54.3
2023-05-09T13:21:33.611Z,59.6
2023-05-09T13:22:47.982Z,52
2023-05-09T13:24:02.402Z,54.6
2023-05-09T13:25:16.849Z,62.1
2023-05-09T13:26:31.226Z,62.8
2023-05-09T13:27:45.670Z,60.2
2023-05-09T13:29:00.084Z,61.7
2023-05-09T13:30:14.496Z,60.7
2023-05-09T13:31:28.875Z,60.2
2023-05-09T13:32:42.457Z,53.8
2023-05-09T13:33:56.856Z,54.6
2023-05-09T13:35:11.248Z,57.8
2023-05-09T13:37:39.216Z,51.5
2023-05-09T13:38:53.657Z,52.5
2023-05-09T13:40:08.034Z,54.3
2023-05-09T13:42:36.860Z,54.4
2023-05-09T13:43:51.303Z,52.2
2023-05-09T13:45:05.700Z,52.5
2023-05-09T13:47:33.673Z,51.7
2023-05-09T13:48:48.055Z,54.3
2023-05-09T13:50:02.463Z,53.4
2023-05-09T13:52:31.293Z,53.9
2023-05-09T13:53:45.708Z,53
2023-05-09T13:55:00.135Z,51.8
2023-05-09T13:56:14.539Z,54.3
2023-05-09T13:57:28.947Z,54.7
2023-05-09T13:58:43.371Z,50.4
2023-05-09T13:59:57.808Z,52.5
2023-05-09T14:01:12.205Z,51.2
2023-05-09T14:02:25.736Z,56.7
2023-05-09T14:03:40.153Z,52.3
2023-05-09T14:04:54.552Z,54.6
2023-05-09T14:06:08.961Z,52
2023-05-09T14:07:23.415Z,55.1
2023-05-09T14:08:37.803Z,55.9
2023-05-09T14:09:52.211Z,52.5
2023-05-09T14:12:21.047Z,51
2023-05-09T14:14:49.857Z,54.9
2023-05-09T14:16:04.277Z,53.4
2023-05-09T14:17:18.699Z,51.2
2023-05-09T14:18:33.111Z,53.3
2023-05-09T14:19:47.521Z,52.6
2023-05-09T14:22:16.352Z,52.2
2023-05-09T14:23:30.757Z,52.3
2023-05-09T14:25:59.741Z,57.5
2023-05-09T14:27:14.134Z,53
2023-05-09T14:28:28.533Z,55.4
2023-05-09T14:29:42.954Z,51.8
2023-05-09T14:30:57.362Z,53.1
2023-05-09T14:32:11.785Z,52.8
2023-05-09T14:33:26.184Z,51.8
2023-05-09T14:34:40.598Z,51.2
2023-05-09T14:37:09.435Z,51
2023-05-09T14:38:23.888Z,61.3
2023-05-09T14:43:21.534Z,52
2023-05-09T14:44:35.914Z,52
2023-05-09T14:47:04.773Z,53.6
2023-05-09T14:48:19.156Z,53.9
2023-05-09T14:49:33.561Z,61.5
2023-05-09T14:52:02.391Z,55.4
2023-05-09T14:53:16.799Z,51.8
2023-05-09T14:54:31.214Z,50.4
2023-05-09T14:55:45.675Z,53.8
2023-05-09T14:57:00.081Z,54.1
2023-05-09T14:58:13.631Z,54.1
2023-05-09T14:59:28.007Z,55.9
2023-05-09T15:00:42.419Z,51.8
2023-05-09T15:01:56.823Z,51.8
2023-05-09T15:03:11.234Z,51.8
2023-05-09T15:04:25.684Z,56.2
2023-05-09T15:06:54.480Z,53.3
2023-05-09T15:08:08.924Z,51.7
2023-05-09T15:09:23.337Z,55.2
2023-05-09T15:11:52.165Z,51.7
2023-05-09T15:13:06.547Z,53.4
2023-05-09T15:14:20.087Z,51.2
2023-05-09T15:15:34.543Z,53.3
2023-05-09T15:16:48.912Z,52.3
2023-05-09T15:18:03.320Z,55.2
2023-05-09T15:19:17.740Z,53.6
2023-05-09T15:21:46.572Z,54.3
2023-05-09T15:24:15.431Z,59.1
2023-05-09T15:25:29.812Z,53.1
2023-05-09T15:26:44.228Z,50.9
2023-05-09T15:27:58.644Z,50.4
2023-05-09T15:29:13.059Z,54.3
2023-05-09T15:30:27.478Z,51.8
2023-05-09T15:31:41.874Z,53.4
2023-05-09T15:32:56.289Z,51.7
2023-05-09T15:34:10.716Z,50.2
2023-05-09T15:35:25.118Z,51
2023-05-09T15:36:38.663Z,53.6
2023-05-09T15:37:53.079Z,54.3
2023-05-09T15:39:07.493Z,53
2023-05-09T15:40:21.934Z,52.5
2023-05-09T15:41:36.311Z,53.6
2023-05-09T15:42:50.728Z,53.6
2023-05-09T15:45:19.591Z,54.9
2023-05-09T15:46:33.971Z,51.7
2023-05-09T15:47:48.394Z,52.5
2023-05-09T15:49:02.792Z,56.2
2023-05-09T15:51:31.620Z,53.9
2023-05-09T15:52:46.039Z,53.3
2023-05-09T15:54:00.452Z,53.8
2023-05-09T15:55:14.879Z,52.5
2023-05-09T15:56:28.402Z,52.3
2023-05-09T15:57:42.857Z,54.7
2023-05-09T15:58:57.239Z,53.1
2023-05-09T16:00:11.652Z,52.6
2023-05-09T16:01:26.057Z,52.5
2023-05-09T16:02:40.464Z,59.2
2023-05-09T16:03:54.897Z,51.4
2023-05-09T16:05:09.296Z,53.4
2023-05-09T16:06:23.712Z,53.4
2023-05-09T16:07:38.135Z,51.2
2023-05-09T16:08:52.530Z,51.2
2023-05-09T16:11:21.377Z,53.3
2023-05-09T16:12:35.777Z,52.8
2023-05-09T16:15:04.644Z,51.7
2023-05-09T16:16:19.021Z,55.7
2023-05-09T16:17:32.555Z,50.4
2023-05-09T16:18:46.972Z,55.4
2023-05-09T16:21:15.802Z,55.7
2023-05-09T16:22:30.212Z,55.7
2023-05-09T16:23:44.629Z,52.2
2023-05-09T16:24:59.049Z,50.4
2023-05-09T16:26:13.467Z,53.4
2023-05-09T16:28:42.318Z,51.8
2023-05-09T16:31:11.145Z,56.2
2023-05-09T16:32:25.535Z,55.4
2023-05-09T16:33:39.933Z,53.6
2023-05-09T16:34:54.364Z,56.7
2023-05-09T16:36:08.765Z,53.3
2023-05-09T16:37:23.214Z,50.7
2023-05-09T16:38:37.601Z,51.8
2023-05-09T16:39:52.057Z,55.9
2023-05-09T16:41:06.423Z,60.9
2023-05-09T16:42:19.989Z,54.7
2023-05-09T16:43:34.402Z,59.4
2023-05-09T16:46:03.197Z,51.8
2023-05-09T16:47:17.615Z,51.8
2023-05-09T16:48:32.063Z,55.1
2023-05-09T16:49:46.442Z,53.1
2023-05-09T16:51:00.854Z,56.3
2023-05-09T16:52:15.318Z,50.9
2023-05-09T16:53:29.727Z,52.5
2023-05-09T16:54:44.107Z,54.7
2023-05-09T16:55:58.552Z,51.7
2023-05-09T16:57:12.960Z,53.4
2023-05-09T16:58:26.476Z,56.5
2023-05-09T17:00:55.318Z,53.3
2023-05-09T17:02:08.838Z,50.2
2023-05-09T17:05:52.079Z,53.8
2023-05-09T17:07:06.494Z,55.9
2023-05-09T17:08:20.958Z,54.4
2023-05-09T17:10:49.775Z,55.5
2023-05-09T17:12:04.155Z,54.6
2023-05-09T17:13:18.604Z,55.1
2023-05-09T17:14:32.973Z,55.9
2023-05-09T17:15:47.401Z,55.4
2023-05-09T17:17:01.817Z,53.9
2023-05-09T17:18:15.401Z,54.6
2023-05-09T17:20:44.235Z,55.1
2023-05-09T17:21:58.594Z,54.4
2023-05-09T17:23:13.017Z,52
2023-05-09T17:24:27.433Z,53.1
2023-05-09T17:25:40.972Z,55.1
2023-05-09T17:26:55.391Z,54.6
2023-05-09T17:28:09.798Z,55.1
2023-05-09T17:29:24.203Z,54.3
2023-05-09T17:31:53.048Z,56
2023-05-09T17:33:07.492Z,54.3
2023-05-09T17:34:21.866Z,54.9
2023-05-09T17:35:36.278Z,54.7
2023-05-09T17:36:50.708Z,56
2023-05-09T17:38:05.139Z,55.5
2023-05-09T17:39:19.528Z,56.3
2023-05-09T17:40:33.943Z,54.9
2023-05-09T17:41:48.380Z,54.7
2023-05-09T17:43:02.776Z,54.6
2023-05-09T17:45:31.607Z,54.6
2023-05-09T17:46:46.042Z,54.9
2023-05-09T17:47:59.553Z,55.2
2023-05-09T17:50:28.364Z,57.2
2023-05-09T17:51:42.790Z,57.3
2023-05-09T17:52:57.207Z,53.3
2023-05-09T17:54:11.651Z,56
2023-05-09T17:56:40.475Z,58.3
2023-05-09T17:57:54.891Z,58.4
2023-05-09T17:59:09.275Z,57
2023-05-09T18:00:23.678Z,56.3
2023-05-09T18:01:38.096Z,55.2
2023-05-09T18:02:52.520Z,54.9
2023-05-09T18:05:21.366Z,57
2023-05-09T18:06:35.742Z,53
2023-05-09T18:09:03.692Z,53.9
2023-05-09T18:10:18.119Z,57.3
2023-05-09T18:11:32.552Z,56.8
2023-05-09T18:12:46.976Z,54.9
2023-05-09T18:15:15.760Z,55.4
2023-05-09T18:16:30.212Z,55.1
2023-05-09T18:17:44.589Z,50.7
2023-05-09T18:18:59.036Z,55.2
2023-05-09T18:20:13.457Z,54.9
2023-05-09T18:21:27.836Z,56
2023-05-09T18:22:42.260Z,54.6
2023-05-09T18:23:56.668Z,54.7
2023-05-09T18:25:11.068Z,53.9
2023-05-09T18:26:25.522Z,53.8
2023-05-09T18:27:39.908Z,55.2
2023-05-09T18:28:54.327Z,53.9
2023-05-09T18:30:08.775Z,54.6
2023-05-09T18:31:23.146Z,56
2023-05-09T18:32:37.555Z,52.3
2023-05-09T18:33:51.102Z,53.4
2023-05-09T18:35:04.677Z,52.5
2023-05-09T18:36:19.062Z,55.7
2023-05-09T18:37:32.599Z,54.7
2023-05-09T18:38:47.008Z,54.3
2023-05-09T18:41:15.833Z,53.9
2023-05-09T18:42:30.259Z,52.3
2023-05-09T18:43:44.666Z,53.6
2023-05-09T18:46:13.522Z,53.6